Date,TemperatureHighF,TemperatureAvgF,TemperatureLowF,DewpointHighF,DewpointAvgF,DewpointLowF,HumidityHigh,HumidityAvg,HumidityLow,PressureMaxIn,PressureMinIn,WindSpeedMaxMPH,WindSpeedAvgMPH,GustSpeedMaxMPH,PrecipitationSumIn
2013-1-1,54,42,34,50,36,27,94,79,54,30.18,30.09,6,1,8,0.00
2013-1-2,52,50,43,48,43,30,91,79,47,30.45,30.09,13,5,19,0.06
2013-1-3,59,49,41,40,35,31,89,59,36,30.56,30.45,15,3,16,0.00
2013-1-4,54,45,39,52,40,36,96,84,61,30.50,30.24,6,0,7,0.00
2013-1-5,59,49,39,56,42,34,98,79,45,30.24,30.09,10,2,15,0.00
2013-1-6,61,49,40,44,35,31,85,61,34,30.24,30.06,9,1,10,0.00
2013-1-7,56,45,38,49,32,24,98,66,36,30.30,30.09,16,4,17,0.00
2013-1-8,50,46,42,36,29,17,75,52,32,30.33,30.24,17,2,20,0.00
2013-1-9,52,45,39,49,40,34,94,84,73,30.24,30.09,4,0,6,0.00
2013-1-10,53,49,46,47,43,40,87,80,74,30.09,29.83,8,1,10,0.00
2013-1-11,51,47,43,46,40,27,85,76,50,29.97,29.77,11,2,18,0.00
2013-1-12,53,43,39,33,24,17,68,47,30,30.06,29.97,17,5,23,0.00
2013-1-13,49,45,40,45,40,33,91,83,64,30.06,29.83,20,6,26,1.04
2013-1-14,44,42,39,42,39,35,95,88,78,29.88,29.80,26,8,30,0.67
2013-1-15,53,45,39,52,41,36,98,89,69,29.91,29.68,12,2,12,0.07
2013-1-16,47,42,35,40,34,30,97,75,51,29.68,29.44,17,8,23,1.63
2013-1-17,42,39,36,36,31,23,95,74,49,29.59,29.53,17,8,27,0.15
2013-1-18,44,40,34,24,21,19,61,46,38,29.65,29.56,15,5,19,0.00
2013-1-19,47,39,29,45,30,19,91,73,55,29.68,29.65,17,3,17,0.19
2013-1-20,57,53,47,55,50,44,98,91,84,29.65,29.47,25,8,33,0.26
2013-1-21,56,51,48,55,50,46,98,95,89,29.47,29.32,9,2,11,0.89
2013-1-22,53,48,45,50,43,38,98,84,58,29.71,29.44,10,3,13,0.24
2013-1-23,51,46,42,49,42,39,96,85,68,29.83,29.68,15,3,23,0.89
2013-1-24,49,46,44,43,30,21,89,55,38,29.68,29.50,19,7,24,0.30
2013-1-25,44,39,34,21,17,13,42,40,36,29.91,29.65,24,8,28,0.00
2013-1-26,40,36,33,19,16,13,48,42,35,29.94,29.83,17,8,28,0.00
2013-1-27,52,42,34,27,21,17,74,45,27,29.97,29.91,20,5,23,0.00
2013-1-28,50,43,34,43,38,27,90,81,61,30.15,29.91,9,2,12,0.13
2013-1-29,53,44,35,45,36,30,92,73,47,30.24,30.15,8,1,8,0.00
2013-1-30,51,43,36,48,39,33,96,86,75,30.21,30.09,5,0,6,0.00
2013-1-31,52,47,44,49,43,37,96,84,66,30.21,30.06,6,1,8,0.02
2013-2-1,56,51,47,52,47,43,94,86,76,30.06,29.59,18,4,25,0.00
2013-2-2,58,53,42,54,46,27,95,78,49,29.59,29.21,27,11,31,1.83
2013-2-3,51,45,37,28,20,14,50,39,26,30.06,29.41,22,6,26,0.07
2013-2-4,54,43,33,33,24,16,72,50,32,30.12,30.03,11,2,13,0.00
2013-2-5,53,49,39,45,38,30,83,67,51,30.12,29.65,17,7,17,0.00
2013-2-6,55,47,38,45,36,25,89,66,47,29.65,29.47,17,8,24,0.35
2013-2-7,50,43,35,28,21,15,68,42,29,29.74,29.53,13,5,22,0.00
2013-2-8,42,41,40,19,16,13,39,35,31,29.85,29.74,18,5,22,0.00
2013-2-9,42,38,35,18,16,14,43,40,35,29.94,29.85,14,4,17,0.00
2013-2-10,44,35,27,17,14,11,60,42,29,29.97,29.91,13,3,13,0.00
2013-2-11,48,39,27,41,26,15,77,62,39,29.94,29.56,28,10,33,0.04
2013-2-12,50,46,40,45,37,27,89,71,53,29.77,29.53,26,6,30,0.26
2013-2-13,45,43,42,30,22,19,60,43,36,29.97,29.74,21,6,25,0.00
2013-2-14,50,45,41,26,24,21,51,43,37,30.06,29.94,22,8,26,0.00
2013-2-15,53,45,41,28,25,22,55,46,32,30.06,29.97,13,7,20,0.00
2013-2-16,50,46,43,27,25,22,54,44,37,30.15,30.06,19,7,20,0.00
2013-2-17,49,44,42,26,24,22,51,45,37,30.15,30.09,19,8,24,0.00
2013-2-18,50,44,41,26,23,20,51,44,31,30.09,30.03,17,7,20,0.00
2013-2-19,53,44,38,27,23,20,58,45,29,30.09,29.91,10,3,13,0.00
2013-2-20,49,42,36,34,30,24,87,62,46,30.03,29.91,17,4,20,0.37
2013-2-21,41,38,35,34,24,17,88,58,42,30.03,29.74,26,10,27,0.15
2013-2-22,38,36,34,34,28,19,98,73,45,29.77,29.56,24,12,26,0.37
2013-2-23,42,38,33,38,33,29,98,85,61,29.71,29.50,22,7,28,1.28
2013-2-24,47,44,40,43,37,33,93,79,67,29.83,29.56,20,6,24,0.52
2013-2-25,56,46,38,45,29,17,94,58,22,30.09,29.91,10,3,13,0.00
2013-2-26,58,49,43,33,30,24,65,49,35,30.12,30.03,13,5,17,0.00
2013-2-27,52,48,43,36,30,26,70,50,39,30.27,30.09,15,6,26,0.00
2013-2-28,58,50,42,32,29,26,60,46,33,30.27,30.18,17,6,22,0.00
2013-3-1,58,46,35,46,33,28,87,63,37,30.21,30.06,10,1,11,0.00
2013-3-2,53,46,38,43,23,15,91,43,26,30.12,30.06,20,7,24,0.00
2013-3-3,59,48,38,24,19,12,52,33,17,30.09,30.03,13,4,17,0.00
2013-3-4,60,52,43,25,19,12,43,28,21,30.24,30.06,19,7,24,0.00
2013-3-5,59,49,35,44,29,20,75,48,25,30.24,30.12,13,3,16,0.00
2013-3-6,56,54,52,50,47,37,91,78,52,30.12,29.77,22,9,26,0.20
2013-3-7,58,55,53,54,51,50,98,88,76,29.77,29.71,22,10,25,0.11
2013-3-8,61,56,54,56,53,50,96,91,78,29.74,29.62,13,2,15,0.07
2013-3-9,57,54,52,55,53,50,96,93,86,29.68,29.62,8,2,12,0.31
2013-3-10,58,54,52,52,49,44,96,84,73,29.62,29.53,13,3,13,0.37
2013-3-11,59,51,45,55,47,43,98,86,60,29.59,29.50,8,1,8,0.07
2013-3-12,56,51,46,51,46,41,96,83,63,29.56,29.47,10,1,10,0.35
2013-3-13,58,52,44,54,45,39,97,80,60,29.47,29.35,11,2,12,0.19
2013-3-14,51,44,38,46,27,18,85,51,39,29.44,29.23,13,5,18,0.13
2013-3-15,45,40,37,17,12,6,42,32,26,30.00,29.44,13,5,21,0.00
2013-3-16,47,39,32,19,12,7,57,33,22,30.18,30.00,14,4,15,0.00
2013-3-17,50,42,30,34,26,18,78,54,31,30.15,29.85,18,7,23,0.00
2013-3-18,55,51,48,52,46,35,91,83,60,29.85,29.29,28,13,34,1.07
2013-3-19,59,52,44,44,33,24,82,50,26,29.77,29.38,17,4,22,0.00
2013-3-20,63,51,42,52,40,34,90,68,39,29.80,29.71,8,2,11,0.26
2013-3-21,62,51,41,47,36,26,92,60,27,29.94,29.68,15,4,19,0.33
2013-3-22,62,51,41,43,27,15,85,43,16,29.94,29.88,11,4,13,0.00
2013-3-23,44,41,40,41,38,34,90,86,78,29.97,29.94,6,0,9,0.00
2013-3-24,48,45,42,36,28,23,71,51,44,29.85,29.74,28,17,34,0.04
2013-3-25,42,39,35,25,20,15,67,45,40,29.74,29.50,27,14,34,0.00
2013-3-26,47,40,37,20,18,15,46,40,30,29.71,29.56,16,7,22,0.00
2013-3-27,50,41,34,23,18,15,56,40,27,29.91,29.71,13,5,18,0.00
2013-3-28,53,45,36,45,31,23,74,57,41,29.97,29.83,10,1,13,0.00
2013-3-29,54,52,50,54,49,44,98,91,70,29.83,29.65,21,4,25,0.91
2013-3-30,59,57,54,57,53,50,98,87,74,29.68,29.38,25,7,26,0.26
2013-3-31,58,52,47,54,45,31,93,76,49,29.65,29.35,20,5,22,0.02
2013-4-1,57,48,42,37,33,29,78,56,45,29.77,29.65,19,9,20,0.04
2013-4-2,50,47,45,40,33,22,84,61,39,29.68,29.53,24,11,26,0.59
2013-4-3,55,49,46,29,27,23,49,42,35,29.80,29.59,15,5,18,0.00
2013-4-4,58,51,40,36,30,26,62,46,35,29.85,29.74,15,4,15,0.00
2013-4-5,54,50,48,46,40,32,91,70,43,29.74,29.50,17,7,19,0.44
2013-4-6,57,51,48,52,44,34,98,81,46,29.91,29.71,14,3,17,0.04
2013-4-7,55,50,47,35,25,20,56,38,27,29.91,29.83,25,8,32,0.00
2013-4-8,58,50,43,32,24,20,52,36,25,29.91,29.80,13,4,14,0.00
2013-4-9,60,54,48,51,42,30,89,65,40,29.85,29.74,14,4,21,0.19
2013-4-10,65,56,48,53,44,37,93,67,38,30.00,29.83,17,3,22,0.04
2013-4-11,66,57,45,55,43,36,94,64,35,30.00,29.94,11,2,13,0.00
2013-4-12,66,60,56,54,48,37,89,66,44,29.94,29.85,23,10,26,0.04
2013-4-13,68,57,47,55,44,36,93,64,33,30.27,29.91,8,1,10,0.00
2013-4-14,73,60,48,48,38,30,89,50,23,30.36,30.27,13,2,15,0.00
2013-4-15,74,62,48,46,38,31,77,45,22,30.30,30.15,11,2,13,0.00
2013-4-16,71,64,54,44,34,27,68,35,22,30.21,30.18,13,4,15,0.00
2013-4-17,74,62,52,44,34,25,69,38,16,30.24,30.15,10,3,13,0.00
2013-4-18,63,55,52,51,43,40,74,65,54,30.18,30.03,4,0,4,0.00
2013-4-19,75,67,55,51,40,33,66,38,26,30.03,29.91,9,2,11,0.00
2013-4-20,74,64,53,46,37,27,69,39,21,30.03,29.94,10,3,15,0.00
2013-4-21,75,67,61,44,39,31,49,37,21,30.00,29.91,15,6,16,0.00
2013-4-22,67,59,53,53,46,38,84,66,36,30.03,29.88,12,4,14,0.28
2013-4-23,69,59,51,49,44,37,85,60,34,30.33,30.03,10,3,13,0.15
2013-4-24,72,60,48,59,44,33,95,60,25,30.42,30.33,7,1,9,0.00
2013-4-25,78,63,49,58,41,28,91,53,18,30.36,30.21,6,1,9,0.00
2013-4-26,75,64,52,55,45,31,82,54,22,30.21,29.91,11,2,11,0.00
2013-4-27,70,64,61,58,51,44,86,64,44,29.94,29.77,24,6,26,0.00
2013-4-28,72,65,58,60,53,45,90,69,39,30.06,29.80,17,6,20,0.02
2013-4-29,80,67,55,64,45,30,95,54,17,30.12,30.03,12,2,14,0.00
2013-4-30,78,67,56,52,44,37,66,45,24,30.12,30.06,9,2,11,0.00
2013-5-1,82,69,56,54,45,37,74,46,21,30.12,30.03,8,1,10,0.00
2013-5-2,69,66,63,60,55,48,88,67,50,30.03,29.91,6,1,8,0.04
2013-5-3,74,66,61,64,58,52,95,76,46,29.97,29.88,9,2,11,0.00
2013-5-4,77,67,57,66,54,47,97,67,36,30.00,29.94,9,2,10,0.00
2013-5-5,71,65,59,58,51,45,83,62,40,30.06,29.97,15,5,20,0.07
2013-5-6,68,64,62,62,56,50,91,74,60,30.06,29.91,15,5,17,0.26
2013-5-7,72,65,59,66,58,54,97,77,56,29.97,29.91,9,2,10,0.00
2013-5-8,73,64,56,66,56,50,98,76,47,29.97,29.94,8,2,10,0.00
2013-5-9,84,72,60,58,48,39,82,47,21,29.97,29.88,13,4,15,0.00
2013-5-10,78,68,62,63,55,48,82,63,42,29.91,29.85,8,2,11,0.00
2013-5-11,68,64,59,62,57,52,95,81,59,29.88,29.80,13,2,17,0.59
2013-5-12,73,64,58,58,45,37,89,54,28,29.88,29.80,13,5,14,0.06
2013-5-13,71,64,56,46,38,29,68,41,22,30.03,29.88,11,4,15,0.02
2013-5-14,75,63,52,57,46,35,86,57,25,30.00,29.88,8,2,10,0.00
2013-5-15,76,64,52,61,45,34,92,55,23,29.88,29.77,8,2,11,0.00
2013-5-16,68,64,59,57,48,39,87,57,34,29.77,29.62,22,9,32,0.50
2013-5-17,68,62,55,63,52,43,87,70,47,29.85,29.59,13,4,32,0.63
2013-5-18,74,63,52,62,48,40,97,63,32,30.03,29.85,11,2,14,0.00
2013-5-19,76,65,56,55,46,36,72,52,25,29.97,29.83,16,2,19,0.00
2013-5-20,71,63,55,55,45,33,83,54,25,30.06,29.94,13,4,17,0.02
2013-5-21,67,62,57,55,46,42,79,57,41,30.06,29.88,13,4,13,0.00
2013-5-22,73,63,52,60,49,40,92,64,32,29.88,29.59,9,3,10,0.00
2013-5-23,67,62,59,48,36,30,55,37,27,29.65,29.53,22,7,28,0.00
2013-5-24,63,58,51,55,43,36,93,58,41,29.83,29.65,17,5,20,0.72
2013-5-25,64,55,50,53,44,35,89,69,38,29.83,29.77,11,3,13,0.44
2013-5-26,66,57,48,48,41,34,90,60,34,29.94,29.77,11,4,13,0.22
2013-5-27,70,64,57,45,41,32,62,43,25,29.94,29.88,13,6,18,0.00
2013-5-28,68,62,59,57,51,44,90,69,47,29.91,29.74,15,4,17,0.07
2013-5-29,73,64,56,63,50,40,98,65,35,29.74,29.62,11,2,13,0.00
2013-5-30,67,61,56,54,46,37,85,60,33,29.68,29.62,13,4,15,0.20
2013-5-31,64,58,54,56,51,44,94,80,50,29.65,29.56,13,2,15,0.33
2013-6-1,68,61,54,55,48,38,92,66,34,29.80,29.59,12,4,16,0.22
2013-6-2,72,64,58,60,51,43,94,67,38,29.94,29.74,8,2,11,0.00
2013-6-3,76,67,60,56,43,35,78,43,23,30.00,29.91,10,5,14,0.00
2013-6-4,76,68,63,48,44,36,56,42,26,29.97,29.91,14,4,17,0.00
2013-6-5,77,68,59,52,45,42,67,45,30,30.03,29.97,13,4,15,0.00
2013-6-6,78,69,61,55,51,47,74,52,36,30.06,30.03,9,2,10,0.00
2013-6-7,80,70,58,59,50,45,86,53,30,30.06,29.97,10,3,11,0.00
2013-6-8,84,74,65,56,51,38,68,47,20,30.00,29.88,12,4,13,0.00
2013-6-9,82,70,60,65,55,46,89,63,32,29.91,29.85,11,2,12,0.04
2013-6-10,76,69,62,66,55,44,95,65,33,29.85,29.77,13,3,13,0.04
2013-6-11,77,67,60,61,54,47,90,65,35,29.97,29.83,13,2,15,0.46
2013-6-12,81,71,61,59,48,37,83,47,22,30.09,29.97,9,3,11,0.00
2013-6-13,84,73,59,53,44,36,77,40,20,30.09,29.97,10,3,12,0.00
2013-6-14,80,70,61,58,51,46,75,52,30,30.00,29.94,8,1,9,0.00
2013-6-15,86,76,65,62,54,48,77,49,29,29.97,29.94,9,2,10,0.00
2013-6-16,87,76,64,66,56,49,88,54,30,30.03,29.97,8,2,10,0.00
2013-6-17,91,79,66,67,58,50,86,53,29,30.00,29.94,6,1,9,0.00
2013-6-18,91,80,69,74,62,49,91,59,24,30.00,29.94,8,2,9,0.00
2013-6-19,89,80,69,70,65,58,84,62,36,30.00,29.94,8,2,10,0.00
2013-6-20,92,81,70,74,66,56,92,64,31,29.97,29.91,10,2,11,0.00
2013-6-21,92,81,72,71,56,40,80,47,17,29.94,29.91,7,2,9,0.00
2013-6-22,86,78,68,68,54,45,80,47,25,29.94,29.91,10,2,10,0.00
2013-6-23,85,76,67,68,57,49,84,54,30,29.94,29.83,9,2,13,0.00
2013-6-24,78,71,66,68,54,42,87,58,30,29.91,29.80,14,4,18,0.04
2013-6-25,81,71,60,51,40,32,61,35,20,30.06,29.91,15,5,20,0.00
2013-6-26,80,72,67,48,40,33,49,34,20,30.15,30.06,13,6,15,0.00
2013-6-27,76,68,62,40,34,30,37,29,21,30.18,30.06,17,6,18,0.00
2013-6-28,74,66,61,50,38,33,65,37,25,30.09,30.03,15,5,15,0.04
2013-6-29,77,68,58,46,40,34,61,37,22,30.06,29.97,11,3,13,0.00
2013-6-30,84,72,59,53,44,36,72,41,19,30.06,30.03,11,3,11,0.00
2013-7-1,81,74,64,50,45,39,51,37,24,30.12,30.06,10,4,13,0.00
2013-7-2,86,72,60,58,45,38,76,42,19,30.09,29.97,9,2,10,0.00
2013-7-3,86,74,61,59,51,40,74,48,21,30.03,29.88,9,2,10,0.00
2013-7-4,91,77,67,62,51,30,79,50,12,29.97,29.91,13,2,17,0.00
2013-7-5,91,81,71,56,48,41,50,33,18,30.12,30.06,12,4,17,0.00
2013-7-6,87,80,72,55,49,45,45,35,25,30.15,30.06,13,4,20,0.00
2013-7-7,86,80,75,55,51,49,48,36,28,30.18,30.09,17,6,21,0.00
2013-7-8,87,80,73,59,52,49,59,38,28,30.18,30.06,17,6,17,0.00
2013-7-9,91,83,75,54,48,42,46,32,19,30.12,29.94,15,6,17,0.00
2013-7-10,92,82,74,59,50,41,59,35,18,29.94,29.80,12,6,18,0.00
2013-7-11,90,80,72,58,51,42,62,38,19,29.91,29.77,15,5,15,0.00
2013-7-12,87,78,71,61,45,39,68,33,19,30.00,29.88,15,6,20,0.00
2013-7-13,88,78,71,54,46,40,48,34,19,30.00,29.94,15,4,15,0.00
2013-7-14,90,80,74,56,46,38,52,33,18,30.03,29.97,12,5,17,0.00
2013-7-15,91,79,72,52,46,36,45,32,15,30.06,29.97,20,5,20,0.00
2013-7-16,88,78,68,60,45,35,73,34,16,30.15,30.03,15,6,17,0.06
2013-7-17,87,78,68,49,42,36,45,30,18,30.15,30.03,11,4,16,0.00
2013-7-18,90,80,74,59,47,40,59,32,18,30.06,30.00,12,4,15,0.00
2013-7-19,92,82,74,59,47,41,60,31,18,30.03,29.94,11,4,13,0.00
2013-7-20,94,81,71,56,50,41,56,37,17,29.97,29.91,10,4,15,0.00
2013-7-21,91,83,77,55,43,37,43,25,15,30.03,29.94,13,6,17,0.00
2013-7-22,91,81,72,50,42,36,41,27,15,30.03,29.88,12,4,17,0.00
2013-7-23,94,87,74,52,42,31,43,22,11,29.94,29.85,9,3,10,0.00
2013-7-24,91,77,68,60,55,49,68,49,25,29.94,29.88,8,2,9,0.00
2013-7-25,90,80,72,64,57,52,62,47,28,29.97,29.91,10,2,10,0.00
2013-7-26,98,88,76,63,52,44,65,31,16,29.97,29.88,8,2,9,0.00
2013-7-27,98,84,71,60,51,38,62,37,14,29.91,29.85,7,1,10,0.00
2013-7-28,95,84,73,69,59,51,72,46,26,29.97,29.88,8,2,10,0.00
2013-7-29,96,82,71,69,60,42,76,51,17,30.00,29.91,12,2,21,0.11
2013-7-30,88,78,70,68,54,38,94,53,18,30.00,29.91,19,4,23,0.00
2013-7-31,92,82,72,56,45,36,54,30,14,30.06,29.94,14,4,17,0.00
2013-8-1,94,82,76,57,48,38,51,33,14,30.06,29.97,10,4,14,0.00
2013-8-2,96,86,76,58,49,38,53,30,14,30.03,29.94,13,4,15,0.00
2013-8-3,98,83,69,63,52,43,68,39,16,30.00,29.94,8,1,9,0.00
2013-8-4,103,87,70,59,50,33,62,33,9,30.00,29.91,8,1,8,0.00
2013-8-5,100,86,77,57,50,34,47,32,10,29.97,29.91,15,4,17,0.00
2013-8-6,99,91,77,56,47,38,38,23,13,29.94,29.85,9,2,11,0.00
2013-8-7,97,81,72,60,52,42,51,39,16,29.91,29.85,8,1,9,0.00
2013-8-8,98,86,74,58,49,38,50,31,13,29.91,29.85,8,2,11,0.00
2013-8-9,92,83,75,64,56,45,65,41,21,29.88,29.77,10,1,12,0.00
2013-8-10,86,80,74,66,48,39,67,34,20,29.97,29.80,17,6,23,0.00
2013-8-11,90,80,71,45,39,30,35,25,13,30.00,29.88,19,4,19,0.00
2013-8-12,94,82,72,49,41,31,40,25,11,29.97,29.88,13,4,15,0.00
2013-8-13,88,78,67,62,52,42,61,42,21,29.94,29.88,10,2,13,0.00
2013-8-14,82,76,70,50,44,36,42,33,21,30.06,29.91,17,9,23,0.00
2013-8-15,84,74,68,43,40,36,39,31,19,30.12,30.03,21,6,23,0.00
2013-8-16,89,78,70,41,35,28,34,22,13,30.09,29.97,13,5,17,0.00
2013-8-17,90,80,71,50,41,37,46,26,18,30.00,29.94,11,3,14,0.00
2013-8-18,91,77,66,58,48,40,61,39,18,30.03,29.94,6,1,9,0.00
2013-8-19,93,78,66,56,46,36,65,36,14,30.00,29.88,8,1,10,0.00
2013-8-20,77,74,68,60,47,41,75,40,29,30.09,29.88,20,6,21,0.17
2013-8-21,84,74,68,49,43,39,44,34,22,30.12,30.03,15,6,17,0.00
2013-8-22,86,76,70,51,45,40,48,34,21,30.06,29.94,15,6,19,0.00
2013-8-23,87,77,69,52,46,42,54,34,22,29.97,29.88,12,4,13,0.00
2013-8-24,85,75,67,62,56,50,79,53,34,29.94,29.83,8,2,11,0.00
2013-8-25,77,71,66,68,61,54,98,73,45,29.85,29.74,15,4,21,2.13
2013-8-26,82,74,66,67,56,45,80,57,29,29.85,29.74,17,4,20,0.00
2013-8-27,82,72,64,66,57,46,92,63,30,29.91,29.80,11,2,15,0.35
2013-8-28,78,69,64,69,60,45,95,76,33,30.00,29.80,9,2,13,0.20
2013-8-29,82,71,60,62,49,39,87,51,23,30.12,30.00,8,3,10,0.00
2013-8-30,84,73,66,50,42,32,54,35,16,30.12,30.03,12,5,14,0.00
2013-8-31,86,74,67,48,42,33,47,33,16,30.12,30.03,11,4,13,0.00
2013-9-1,86,76,69,49,42,33,47,32,16,30.12,30.03,16,6,17,0.00
2013-9-2,76,70,62,49,44,40,62,39,28,30.18,30.09,15,6,18,0.00
2013-9-3,84,71,58,56,49,40,78,48,22,30.21,30.15,6,1,10,0.00
2013-9-4,84,76,68,55,49,43,62,40,24,30.24,30.12,17,4,18,0.00
2013-9-5,85,74,64,62,54,47,80,52,27,30.12,29.94,9,2,11,0.00
2013-9-6,85,76,67,56,49,40,66,42,21,29.97,29.91,17,5,17,0.00
2013-9-7,84,73,63,61,54,47,82,56,29,30.06,29.97,8,1,11,0.00
2013-9-8,84,74,65,61,57,50,80,58,32,30.12,30.03,8,1,9,0.00
2013-9-9,83,75,69,69,61,48,86,63,30,30.06,29.97,15,4,21,0.00
2013-9-10,81,73,67,60,54,44,76,53,34,30.03,29.85,17,4,17,0.00
2013-9-11,73,67,59,64,55,46,91,69,41,29.97,29.83,16,6,19,1.59
2013-9-12,73,64,60,59,52,45,88,67,37,29.97,29.88,10,5,15,0.09
2013-9-13,74,63,54,58,49,38,91,65,29,30.12,29.97,9,2,10,0.89
2013-9-14,74,64,53,66,56,52,98,78,46,30.12,30.00,10,2,12,0.00
2013-9-15,74,68,61,67,60,56,98,80,53,30.06,29.80,13,4,16,1.61
2013-9-16,75,67,63,68,60,56,97,81,55,29.83,29.59,10,2,10,0.15
2013-9-17,71,63,52,62,47,35,78,57,35,29.80,29.44,26,7,33,0.35
2013-9-18,72,62,49,56,44,36,88,54,37,29.80,29.68,13,3,15,0.00
2013-9-19,74,68,63,56,47,39,68,48,31,29.91,29.65,15,5,16,0.00
2013-9-20,77,67,58,53,43,34,83,44,24,30.06,29.91,14,4,15,0.00
2013-9-21,80,68,57,56,45,34,90,50,20,30.27,30.06,10,3,12,0.00
2013-9-22,74,67,60,43,39,34,50,37,23,30.33,30.21,15,5,17,0.00
2013-9-23,78,65,54,59,49,42,87,59,33,30.24,30.06,6,1,8,0.00
2013-9-24,79,65,55,68,54,48,98,73,36,30.06,29.94,8,1,8,0.00
2013-9-25,76,66,58,68,58,50,98,76,46,30.00,29.94,11,2,14,0.00
2013-9-26,77,69,64,66,57,49,93,68,38,30.00,29.91,8,2,10,0.00
2013-9-27,76,69,65,62,58,52,81,68,44,30.00,29.91,8,1,8,0.00
2013-9-28,77,69,64,69,63,57,96,81,54,29.94,29.88,9,2,12,0.00
2013-9-29,71,67,60,66,62,50,92,84,65,29.91,29.68,17,7,22,0.57
2013-9-30,63,60,57,51,44,38,81,57,46,29.74,29.65,20,10,24,0.19
2013-10-1,69,62,58,43,39,36,55,43,32,29.88,29.74,16,4,17,0.00
2013-10-2,67,60,53,40,34,27,57,37,23,30.24,29.88,15,5,21,0.00
2013-10-3,61,56,51,34,30,24,46,37,26,30.39,30.24,15,7,17,0.00
2013-10-4,64,56,51,32,26,21,43,31,21,30.39,30.33,12,5,17,0.00
2013-10-5,63,60,58,55,50,43,89,72,52,30.24,30.18,15,5,15,0.02
2013-10-6,62,60,58,58,56,52,92,85,70,30.21,30.15,14,6,17,0.20
2013-10-7,64,61,56,56,46,38,88,61,38,30.24,30.15,21,8,22,0.46
2013-10-8,62,59,57,57,53,48,94,80,63,30.24,30.12,24,10,24,1.70
2013-10-9,70,63,58,60,54,48,91,74,46,30.18,30.03,10,2,14,0.00
2013-10-10,71,63,58,66,59,51,98,87,52,30.03,29.77,20,6,24,0.35
2013-10-11,67,60,54,63,53,45,89,79,61,30.06,29.77,15,4,25,0.37
2013-10-12,68,58,51,63,55,49,98,90,68,30.18,30.03,5,0,8,0.11
2013-10-13,73,60,52,68,54,49,98,83,44,30.21,30.15,6,0,8,0.00
2013-10-14,71,60,51,64,52,42,98,78,36,30.21,30.12,5,1,9,0.00
2013-10-15,65,61,59,64,59,54,98,91,80,30.15,29.88,4,0,6,0.06
2013-10-16,70,62,53,64,51,35,98,72,31,29.94,29.71,8,2,11,0.00
2013-10-17,72,56,45,56,43,31,93,65,25,30.06,29.91,6,1,8,0.00
2013-10-18,72,57,47,60,46,34,98,73,29,30.15,30.03,5,1,6,0.00
2013-10-19,70,58,49,62,50,45,97,78,44,30.30,30.12,8,1,9,0.00
2013-10-20,71,66,57,62,55,46,97,70,42,30.33,30.24,17,6,26,0.00
2013-10-21,67,65,63,63,61,58,90,86,74,30.27,30.21,20,8,25,0.26
2013-10-23,72,71,71,58,58,58,62,62,61,30.15,30.12,4,4,4,0.00
2013-10-24,71,70,61,63,59,58,94,69,62,30.21,30.12,4,2,4,0.00
2013-10-25,72,63,57,68,60,56,98,90,60,30.24,30.18,4,0,4,0.00
2013-10-26,73,63,58,67,60,54,98,90,54,30.24,30.21,6,0,6,0.00
2013-10-27,67,63,58,66,61,57,98,92,77,30.24,30.09,8,0,13,0.00
2013-10-28,72,68,65,64,61,57,91,80,61,30.12,30.00,14,6,17,0.00
2013-10-29,73,67,60,62,60,55,93,78,57,30.06,30.00,13,4,15,0.00
2013-10-30,70,62,57,62,48,38,98,63,37,30.21,29.97,16,4,20,0.00
2013-10-31,68,61,58,43,40,36,55,45,34,30.24,30.21,12,5,17,0.00
2013-11-1,68,58,50,54,47,39,93,67,42,30.24,30.15,6,0,8,0.00
2013-11-2,67,63,56,60,57,54,97,81,70,30.15,30.00,14,5,17,0.04
2013-11-3,72,68,62,62,52,41,92,59,35,30.00,29.77,18,6,23,0.09
2013-11-4,70,62,58,61,53,44,94,73,43,29.85,29.47,15,2,15,0.19
2013-11-5,64,58,54,60,49,39,93,73,49,29.56,29.41,13,3,24,0.30
2013-11-6,68,55,46,56,45,38,94,72,44,29.91,29.56,8,0,8,0.00
2013-11-7,69,56,48,65,52,47,98,87,55,30.09,29.91,4,0,6,0.00
2013-11-8,68,64,56,64,59,54,98,84,65,30.09,30.00,17,2,19,0.00
2013-11-9,67,66,64,61,57,36,84,76,34,30.00,29.85,18,9,23,0.00
2013-11-10,66,58,51,54,48,38,91,71,37,29.88,29.53,14,3,19,2.37
2013-11-11,57,55,51,47,32,28,84,43,35,30.15,29.59,16,6,25,0.13
2013-11-12,58,56,53,41,35,30,54,46,39,30.18,30.12,26,10,31,0.00
2013-11-13,61,58,54,42,38,32,55,47,42,30.21,30.09,20,9,23,0.00
2013-11-14,62,56,53,36,34,31,48,44,35,30.21,29.94,16,8,20,0.00
2013-11-15,57,55,52,42,36,34,68,49,43,30.24,29.94,18,9,24,0.00
2013-11-16,59,55,51,36,34,30,50,45,37,30.30,30.21,15,5,20,0.00
2013-11-17,58,54,52,42,36,31,65,50,39,30.30,30.18,14,3,17,0.00
2013-11-18,66,57,50,50,43,37,77,61,36,30.18,29.94,6,0,10,0.00
2013-11-19,63,59,52,56,51,45,94,76,54,29.94,29.59,15,4,26,1.50
2013-11-20,61,55,51,55,49,41,94,83,48,29.68,29.56,12,2,13,0.52
2013-11-21,60,52,46,52,45,35,92,76,43,29.68,29.56,7,1,12,0.13
2013-11-22,57,52,49,49,39,31,91,63,48,29.62,29.53,13,5,17,0.43
2013-11-23,54,52,49,46,40,35,86,65,50,29.68,29.50,14,5,16,0.37
2013-11-24,58,53,48,41,35,30,68,51,36,29.83,29.68,15,4,17,0.00
2013-11-25,52,47,40,31,17,6,48,31,19,30.12,29.83,13,4,22,0.00
2013-11-26,47,43,41,18,11,6,38,27,19,30.21,30.06,17,6,24,0.00
2013-11-27,41,40,39,17,16,13,41,37,32,30.45,30.21,17,6,23,0.00
2013-11-28,51,40,32,26,21,17,78,47,28,30.47,30.42,14,3,17,0.00
2013-11-29,56,40,30,46,28,20,93,68,26,30.42,30.15,6,0,8,0.00
2013-11-30,58,49,40,45,37,24,84,65,40,30.21,30.03,13,4,17,0.00
2013-12-1,50,48,46,28,24,22,46,39,35,30.24,30.12,21,7,27,0.00
2013-12-2,51,48,46,26,24,19,42,38,29,30.47,30.18,22,9,31,0.00
2013-12-3,53,49,46,24,20,16,39,32,26,30.45,30.33,19,9,29,0.00
2013-12-4,58,44,34,37,25,18,79,51,28,30.36,30.21,10,1,14,0.00
2013-12-5,57,44,33,44,27,21,94,56,27,30.27,30.06,18,3,21,0.00
2013-12-6,56,47,37,51,36,27,91,68,42,30.06,29.91,9,2,11,0.00
2013-12-7,57,47,39,30,20,10,52,37,17,30.36,30.06,11,2,11,0.00
2013-12-8,58,48,39,40,34,27,87,60,46,30.47,30.36,12,2,13,0.00
2013-12-9,55,45,38,52,40,35,97,83,62,30.47,30.42,5,0,6,0.00
2013-12-10,61,49,38,53,37,32,97,68,35,30.65,30.47,9,2,15,0.00
2013-12-11,60,50,40,37,33,30,79,53,34,30.65,30.53,9,2,15,0.00
2013-12-12,59,44,37,45,35,32,90,73,38,30.56,30.42,0,0,0,0.00
2013-12-13,56,41,35,52,37,33,97,86,64,30.42,30.27,0,0,0,0.00
2013-12-14,54,44,35,52,40,33,98,88,61,30.47,30.30,5,0,8,0.00
2013-12-15,59,48,39,44,29,22,83,49,25,30.59,30.47,15,2,17,0.00
2013-12-16,61,42,34,46,29,24,85,63,26,30.62,30.56,3,0,4,0.00
2013-12-17,60,41,32,41,30,26,82,67,38,30.59,30.47,5,0,5,0.00
2013-12-18,57,40,31,50,33,28,94,79,44,30.47,30.33,3,0,4,0.00
2013-12-19,55,45,37,53,40,34,98,85,66,30.36,30.24,8,0,10,0.00
2013-12-20,57,53,42,50,43,39,96,71,53,30.56,30.27,12,3,17,0.00
2013-12-21,54,51,49,52,49,45,98,92,82,30.65,30.56,3,0,4,0.06
2013-12-22,57,52,46,55,49,44,98,91,80,30.59,30.42,8,0,8,0.00
2013-12-23,55,52,47,54,49,45,98,92,86,30.42,30.30,4,0,5,0.00
2013-12-24,59,51,45,56,45,39,98,82,49,30.33,30.09,15,3,17,0.00
2013-12-25,60,56,54,51,45,38,79,67,50,30.09,29.71,21,10,24,0.00
2013-12-26,60,57,51,54,51,47,92,80,63,29.71,29.38,25,9,26,0.72
2013-12-27,60,53,46,52,42,34,96,69,39,30.00,29.56,13,2,15,0.07
2013-12-28,54,44,40,53,41,37,96,88,72,30.09,30.00,6,0,10,0.00
2013-12-29,57,54,50,50,48,45,91,79,65,30.24,30.03,13,3,15,0.67
2013-12-30,51,50,48,44,31,28,84,50,42,30.33,30.24,16,5,20,0.04
2013-12-31,52,49,42,39,32,30,74,52,42,30.27,30.15,13,4,17,0.00
2014-1-1,55,47,40,48,40,33,89,79,53,30.18,30.12,3,0,4,0.00
2014-1-2,54,46,36,53,43,34,98,88,67,30.18,30.06,8,1,10,0.11